createdAt,value
2023-02-18T00:05:20.794Z,99289.09
2023-02-18T00:12:10.656Z,99254.09
2023-02-18T00:19:07.107Z,99240.91
2023-02-18T00:26:11.796Z,99247.78
2023-02-18T00:33:04.732Z,99303.63
2023-02-18T00:39:57.382Z,99270.63
2023-02-18T00:46:53.048Z,99276.81
2023-02-18T00:53:46.457Z,99291.66
2023-02-18T01:00:40.251Z,99269.78
2023-02-18T01:07:33.989Z,99279.31
2023-02-18T01:14:28.787Z,99317.63
2023-02-18T01:21:20.511Z,99270.53
2023-02-18T01:28:16.172Z,99283.63
2023-02-18T01:35:08.781Z,99296.63
2023-02-18T01:42:02.469Z,99308.00
2023-02-18T01:49:02.185Z,99332.34
2023-02-18T01:55:56.846Z,99346.44
2023-02-18T02:02:52.545Z,99312.50
2023-02-18T02:09:46.265Z,99333.44
2023-02-18T02:17:10.076Z,99331.78
2023-02-18T02:24:18.795Z,99351.03
2023-02-18T02:31:38.460Z,99361.53
2023-02-18T02:38:44.244Z,99351.97
2023-02-18T02:46:12.379Z,99366.00
2023-02-18T02:53:16.540Z,99366.06
2023-02-18T03:00:14.496Z,99371.38
2023-02-18T03:07:29.210Z,99386.22
2023-02-18T03:14:55.025Z,99406.31
2023-02-18T03:22:21.751Z,99409.00
2023-02-18T03:29:11.016Z,99392.50
2023-02-18T03:36:06.618Z,99402.22
2023-02-18T03:43:02.980Z,99418.06
2023-02-18T03:49:51.656Z,99465.38
2023-02-18T03:56:46.903Z,99443.69
2023-02-18T04:03:35.700Z,99431.75
2023-02-18T04:10:26.822Z,99445.84
2023-02-18T04:17:22.329Z,99459.03
2023-02-18T04:24:15.960Z,99459.91
2023-02-18T04:31:08.606Z,99457.22
2023-02-18T04:37:59.370Z,99479.88
2023-02-18T04:44:53.757Z,99482.44
2023-02-18T04:51:45.678Z,99479.81
2023-02-18T04:58:36.359Z,99502.44
2023-02-18T05:05:26.972Z,99495.50
2023-02-18T05:12:23.450Z,99496.41
2023-02-18T05:19:21.044Z,99528.78
2023-02-18T05:26:13.008Z,99534.09
2023-02-18T05:33:05.719Z,99527.22
2023-02-18T05:39:55.052Z,99534.34
2023-02-18T05:46:51.063Z,99566.66
2023-02-18T05:53:40.800Z,99565.91
2023-02-18T06:00:33.445Z,99568.63
2023-02-18T06:07:28.691Z,99600.00
2023-02-18T06:14:23.814Z,99614.84
2023-02-18T06:21:18.452Z,99615.66
2023-02-18T06:28:15.163Z,99624.38
2023-02-18T06:35:08.907Z,99654.78
2023-02-18T06:42:02.065Z,99662.53
2023-02-18T06:48:58.214Z,99677.28
2023-02-18T06:55:48.901Z,99662.41
2023-02-18T07:02:43.584Z,99662.28
2023-02-18T07:09:41.844Z,99681.25
2023-02-18T07:16:43.966Z,99696.75
2023-02-18T07:23:37.238Z,99694.00
2023-02-18T07:30:35.356Z,99691.28
2023-02-18T07:37:31.012Z,99705.94
2023-02-18T07:44:26.686Z,99708.50
2023-02-18T07:51:20.179Z,99714.56
2023-02-18T07:58:08.245Z,99732.88
2023-02-18T08:04:58.729Z,99758.06
2023-02-18T08:11:55.391Z,99744.91
2023-02-18T08:18:48.116Z,99737.78
2023-02-18T08:25:43.727Z,99760.28
2023-02-18T08:32:40.414Z,99755.72
2023-02-18T08:39:39.808Z,99758.34
2023-02-18T08:46:36.048Z,99777.44
2023-02-18T08:53:33.589Z,99773.97
2023-02-18T09:00:27.044Z,99783.59
2023-02-18T09:07:21.899Z,99791.44
2023-02-18T09:14:15.625Z,99806.19
2023-02-18T09:21:09.490Z,99790.34
2023-02-18T09:28:01.947Z,99798.94
2023-02-18T09:34:53.210Z,99783.63
2023-02-18T09:42:00.951Z,99807.91
2023-02-18T09:48:52.026Z,99832.53
2023-02-18T09:55:43.694Z,99814.41
2023-02-18T10:02:36.882Z,99822.38
2023-02-18T10:09:37.020Z,99854.88
2023-02-18T10:16:30.824Z,99847.16
2023-02-18T10:23:21.382Z,99840.97
2023-02-18T10:30:38.961Z,99856.47
2023-02-18T10:38:04.544Z,99833.59
2023-02-18T10:45:19.118Z,99835.25
2023-02-18T10:52:11.352Z,99840.97
2023-02-18T10:59:29.779Z,99824.88
2023-02-18T11:06:35.449Z,99817.66
2023-02-18T11:13:38.736Z,99821.81
2023-02-18T11:20:29.173Z,99823.66
2023-02-18T11:27:36.134Z,99841.38
2023-02-18T11:34:35.736Z,99840.75
2023-02-18T11:41:42.992Z,99837.28
2023-02-18T11:48:39.150Z,99866.16
2023-02-18T11:55:33.834Z,99830.56
2023-02-18T12:02:41.306Z,99824.59
2023-02-18T12:09:47.226Z,99818.44
2023-02-18T12:16:38.155Z,99803.56
2023-02-18T12:23:56.712Z,99807.00
2023-02-18T12:31:26.193Z,99817.53
2023-02-18T12:38:37.292Z,99801.00
2023-02-18T12:45:51.106Z,99793.88
2023-02-18T12:53:21.882Z,99800.75
2023-02-18T13:00:45.610Z,99805.13
2023-02-18T13:07:51.322Z,99802.56
2023-02-18T13:15:04.315Z,99801.75
2023-02-18T13:21:59.378Z,99801.94
2023-02-18T13:29:16.616Z,99810.72
2023-02-18T13:36:35.392Z,99798.56
2023-02-18T13:43:40.107Z,99795.94
2023-02-18T13:50:37.540Z,99779.38
2023-02-18T13:57:31.035Z,99770.78
2023-02-18T14:04:40.237Z,99764.72
2023-02-18T14:11:39.928Z,99772.69
2023-02-18T14:18:37.087Z,99765.03
2023-02-18T14:25:25.208Z,99759.00
2023-02-18T14:32:18.982Z,99745.97
2023-02-18T14:39:59.536Z,99753.09
2023-02-18T14:47:38.660Z,99748.00
2023-02-18T14:54:33.911Z,99737.66
2023-02-18T15:01:37.648Z,99759.56
2023-02-18T15:08:32.733Z,99764.03
2023-02-18T15:15:29.415Z,99753.63
2023-02-18T15:22:26.092Z,99752.88
2023-02-18T15:29:23.803Z,99737.25
2023-02-18T15:36:30.163Z,99747.88
2023-02-18T15:43:28.282Z,99741.03
2023-02-18T15:50:41.020Z,99748.13
2023-02-18T15:57:36.690Z,99763.88
2023-02-18T16:04:39.034Z,99760.44
2023-02-18T16:11:34.087Z,99780.56
2023-02-18T16:18:44.403Z,99769.25
2023-02-18T16:26:00.651Z,99785.84
2023-02-18T16:32:55.829Z,99795.50
2023-02-18T16:39:50.007Z,99803.41
2023-02-18T16:46:43.641Z,99806.91
2023-02-18T16:53:37.346Z,99807.84
2023-02-18T17:00:30.026Z,99818.38
2023-02-18T17:07:25.467Z,99818.44
2023-02-18T17:14:24.367Z,99823.75
2023-02-18T17:21:28.107Z,99829.00
2023-02-18T17:28:21.792Z,99836.09
2023-02-18T17:35:19.466Z,99855.34
2023-02-18T17:42:14.895Z,99868.56
2023-02-18T17:49:09.807Z,99881.75
2023-02-18T17:56:05.478Z,99896.66
2023-02-18T18:03:00.199Z,99902.88
2023-02-18T18:09:50.986Z,99925.59
2023-02-18T18:16:42.547Z,99936.13
2023-02-18T18:23:40.213Z,99936.19
2023-02-18T18:30:39.062Z,99952.75
2023-02-18T18:37:30.334Z,99953.66
2023-02-18T18:44:22.252Z,99951.13
2023-02-18T18:51:23.985Z,99953.78
2023-02-18T18:58:17.608Z,99950.28
2023-02-18T19:05:07.242Z,99959.00
2023-02-18T19:12:01.924Z,99959.03
2023-02-18T19:18:55.631Z,99967.72
2023-02-18T19:25:48.350Z,99971.22
2023-02-18T19:32:41.547Z,99979.06
2023-02-18T19:39:37.724Z,99977.31
2023-02-18T19:46:31.000Z,99991.25
2023-02-18T19:53:25.586Z,99991.22
2023-02-18T20:00:20.763Z,99997.31
2023-02-18T20:07:16.252Z,100007.78
2023-02-18T20:14:09.158Z,100012.16
2023-02-18T20:21:04.430Z,100022.56
2023-02-18T20:28:01.109Z,100029.56
2023-02-18T20:34:56.185Z,100053.00
2023-02-18T20:41:52.514Z,100053.03
2023-02-18T20:48:53.696Z,100055.66
2023-02-18T20:55:51.013Z,100055.66
2023-02-18T21:02:49.152Z,100065.22
2023-02-18T21:09:44.828Z,100073.03
2023-02-18T21:16:43.210Z,100098.22
2023-02-18T21:23:35.206Z,100088.66
2023-02-18T21:30:27.847Z,100092.16
2023-02-18T21:37:21.249Z,100099.09
2023-02-18T21:44:17.187Z,100098.19
2023-02-18T21:51:11.869Z,100109.47
2023-02-18T21:58:09.299Z,100107.75
2023-02-18T22:05:02.889Z,100130.34
2023-02-18T22:11:56.969Z,100119.91
2023-02-18T22:18:48.626Z,100132.94
2023-02-18T22:25:39.085Z,100145.97
2023-02-18T22:32:35.772Z,100131.22
2023-02-18T22:39:25.174Z,100151.19
2023-02-18T22:46:21.928Z,100131.22
2023-02-18T22:53:18.520Z,100145.09
2023-02-18T23:00:16.337Z,100149.47
2023-02-18T23:07:08.345Z,100155.53
2023-02-18T23:14:18.133Z,100154.66
2023-02-18T23:21:27.810Z,100159.88
2023-02-18T23:28:20.405Z,100154.66
2023-02-18T23:35:15.121Z,100145.09
2023-02-18T23:42:09.791Z,100153.75
2023-02-18T23:49:08.112Z,100146.81
2023-02-18T23:56:23.273Z,100146.81
